Time;durP1;ratioP1;P1;durP2;ratioP2;P2;SDS_P1;SDS_P2;PMS_P1;PMS_P2;Temp;Humidity;BMP_temperature;BMP_pressure;BME280_temperature;BME280_humidity;BME280_pressure;Samples;Min_cycle;Max_cycle;Signal;HPM_P1;HPM_P2
2022/07/05 00:01:45;;;;;;;7.43;2.00;;;;;;;;;;5133950;27;20462;-72
2022/07/05 00:04:13;;;;;;;7.63;2.90;;;;;;;;;;5133880;27;20443;-72
2022/07/05 00:07:17;;;;;;;8.93;1.83;;;;;;;;;;5134277;27;20973;-72
2022/07/05 00:09:27;;;;;;;6.50;1.73;;;;;;;;;;5129594;27;20458;-72
2022/07/05 00:11:55;;;;;;;6.57;1.80;;;;;;;;;;5138272;27;20462;-72
2022/07/05 00:14:24;;;;;;;6.93;1.90;;;;;;;;;;5134258;27;20447;-72
2022/07/05 00:16:51;;;;;;;6.40;1.80;;;;;;;;;;5134263;27;20451;-72
2022/07/05 00:19:18;;;;;;;6.80;2.20;;;;;;;;;;5133064;27;20461;-72
2022/07/05 00:21:45;;;;;;;6.50;1.77;;;;;;;;;;5133361;27;20443;-72
2022/07/05 00:24:12;;;;;;;7.43;1.73;;;;;;;;;;5133322;27;20944;-72
2022/07/05 00:26:39;;;;;;;6.90;1.90;;;;;;;;;;5133952;27;20446;-72
2022/07/05 00:29:06;;;;;;;7.13;2.20;;;;;;;;;;5133684;27;20571;-73
2022/07/05 00:31:35;;;;;;;6.60;1.90;;;;;;;;;;5133802;27;20454;-72
2022/07/05 00:34:02;;;;;;;7.40;1.83;;;;;;;;;;5132619;27;20489;-72
2022/07/05 00:36:29;;;;;;;6.90;1.87;;;;;;;;;;5133890;27;20928;-72
2022/07/05 00:38:56;;;;;;;7.87;1.90;;;;;;;;;;5133299;27;20811;-72
2022/07/05 00:41:23;;;;;;;7.17;2.03;;;;;;;;;;5133812;27;20454;-73
2022/07/05 00:43:53;;;;;;;6.93;1.47;;;;;;;;;;5133567;27;20451;-72
2022/07/05 00:46:20;;;;;;;7.10;1.60;;;;;;;;;;5125703;27;20454;-72
2022/07/05 00:48:49;;;;;;;7.20;2.00;;;;;;;;;;5133463;27;20482;-72
2022/07/05 00:51:16;;;;;;;6.67;1.60;;;;;;;;;;5132846;27;20453;-72
2022/07/05 00:53:43;;;;;;;7.70;1.97;;;;;;;;;;5133726;27;20557;-70
2022/07/05 00:56:11;;;;;;;6.53;1.67;;;;;;;;;;5132416;27;21016;-71
2022/07/05 00:58:38;;;;;;;6.93;1.60;;;;;;;;;;5133038;27;20951;-71
2022/07/05 01:01:06;;;;;;;6.77;1.43;;;;;;;;;;5132797;27;20460;-71
2022/07/05 01:03:33;;;;;;;7.10;1.67;;;;;;;;;;5133995;27;20461;-71
2022/07/05 01:06:02;;;;;;;6.97;1.70;;;;;;;;;;5132034;27;20454;-72
2022/07/05 01:08:30;;;;;;;6.90;1.80;;;;;;;;;;5133250;27;20970;-71
2022/07/05 01:10:57;;;;;;;7.20;1.97;;;;;;;;;;5132494;27;20458;-72
2022/07/05 01:13:26;;;;;;;6.83;2.20;;;;;;;;;;5133411;27;20806;-71
2022/07/05 01:15:53;;;;;;;7.23;1.80;;;;;;;;;;5132708;27;20968;-71
2022/07/05 01:18:20;;;;;;;6.53;2.00;;;;;;;;;;5133422;27;20460;-71
2022/07/05 01:20:48;;;;;;;8.60;2.20;;;;;;;;;;5133198;27;20443;-71
2022/07/05 01:23:17;;;;;;;6.40;1.80;;;;;;;;;;5132268;27;21001;-71
2022/07/05 01:25:46;;;;;;;6.37;1.60;;;;;;;;;;5132750;27;20468;-71
2022/07/05 01:28:13;;;;;;;9.33;2.03;;;;;;;;;;5131852;27;20807;-72
2022/07/05 01:30:41;;;;;;;6.80;1.80;;;;;;;;;;5132748;27;20451;-71
2022/07/05 01:33:09;;;;;;;6.40;1.53;;;;;;;;;;5132126;27;20664;-71
2022/07/05 01:35:36;;;;;;;6.80;1.57;;;;;;;;;;5132353;27;20524;-71
2022/07/05 01:38:04;;;;;;;6.80;1.93;;;;;;;;;;5132259;27;20539;-71
2022/07/05 01:40:32;;;;;;;8.03;1.83;;;;;;;;;;5132418;27;20447;-72
2022/07/05 01:43:00;;;;;;;6.00;1.60;;;;;;;;;;5132139;27;20442;-71
2022/07/05 01:45:39;;;;;;;6.00;1.50;;;;;;;;;;5133531;27;20451;-71
2022/07/05 01:48:09;;;;;;;6.20;1.60;;;;;;;;;;5133470;27;20461;-72
2022/07/05 01:50:38;;;;;;;6.30;1.90;;;;;;;;;;5132776;27;20503;-72
2022/07/05 01:53:05;;;;;;;6.90;2.07;;;;;;;;;;5132073;27;20817;-71
2022/07/05 01:55:34;;;;;;;8.90;2.03;;;;;;;;;;5132025;27;20458;-72
2022/07/05 01:58:02;;;;;;;6.37;1.80;;;;;;;;;;5131754;27;20536;-71
2022/07/05 02:00:29;;;;;;;6.33;1.40;;;;;;;;;;5132227;27;20475;-71
2022/07/05 02:02:57;;;;;;;6.57;1.90;;;;;;;;;;5131898;27;20464;-72
2022/07/05 02:05:25;;;;;;;6.10;1.60;;;;;;;;;;5131984;27;20784;-73
2022/07/05 02:07:52;;;;;;;6.70;1.67;;;;;;;;;;5132594;27;20840;-71
2022/07/05 02:10:19;;;;;;;6.70;1.70;;;;;;;;;;5131529;27;20500;-71
2022/07/05 02:12:47;;;;;;;6.60;1.87;;;;;;;;;;5135651;27;20652;-71
2022/07/05 02:15:15;;;;;;;6.90;2.10;;;;;;;;;;5131038;27;20764;-71
2022/07/05 02:17:42;;;;;;;7.40;1.80;;;;;;;;;;5131980;27;20461;-71
2022/07/05 02:20:09;;;;;;;6.10;1.80;;;;;;;;;;5131460;27;20995;-73
2022/07/05 02:22:37;;;;;;;6.20;1.83;;;;;;;;;;5132121;27;20817;-72
2022/07/05 02:25:04;;;;;;;6.43;1.77;;;;;;;;;;5131483;27;20446;-73
2022/07/05 02:27:31;;;;;;;7.47;1.90;;;;;;;;;;5132386;27;21135;-72
2022/07/05 02:30:00;;;;;;;7.37;1.80;;;;;;;;;;5131392;27;20546;-72
2022/07/05 02:32:27;;;;;;;8.43;2.07;;;;;;;;;;5131679;27;20448;-72
2022/07/05 02:34:54;;;;;;;5.67;1.50;;;;;;;;;;5131958;27;20996;-72
2022/07/05 02:37:21;;;;;;;5.90;1.50;;;;;;;;;;5131996;27;20448;-71
2022/07/05 02:39:48;;;;;;;5.90;1.60;;;;;;;;;;5132195;27;20455;-71
2022/07/05 02:42:15;;;;;;;6.23;1.40;;;;;;;;;;5131072;27;20439;-72
2022/07/05 02:44:42;;;;;;;5.37;1.53;;;;;;;;;;5130516;27;20963;-72
2022/07/05 02:47:11;;;;;;;6.20;1.83;;;21.60;1.00;;;;;;5131524;27;20869;-71
2022/07/05 02:49:37;;;;;;;6.00;1.63;;;15.70;1.00;;;;;;5131934;28;20479;-72
2022/07/05 02:52:05;;;;;;;5.60;1.50;;;15.50;1.00;;;;;;5131253;28;20453;-71
2022/07/05 02:54:33;;;;;;;6.33;1.87;;;15.40;1.00;;;;;;5131393;28;20455;-71
2022/07/05 02:57:01;;;;;;;6.00;1.80;;;15.50;1.00;;;;;;5131004;28;20443;-72
2022/07/05 02:59:29;;;;;;;6.53;1.97;;;15.60;1.00;;;;;;5131603;28;20457;-71
2022/07/05 03:01:56;;;;;;;6.20;2.07;;;15.60;1.00;;;;;;5130891;28;20980;-71
2022/07/05 03:04:25;;;;;;;7.13;1.70;;;15.50;1.00;;;;;;5131266;28;20796;-71
2022/07/05 03:06:52;;;;;;;5.67;1.30;;;15.40;1.00;;;;;;5126736;28;20798;-71
2022/07/05 03:09:19;;;;;;;5.37;1.60;;;15.40;1.00;;;;;;5130694;28;20470;-71
2022/07/05 03:11:45;;;;;;;5.93;1.73;;;15.40;1.00;;;;;;5138231;27;21021;-71
2022/07/05 03:14:12;;;;;;;5.67;1.60;;;15.40;1.00;;;;;;5131277;27;20454;-71
2022/07/05 03:16:39;;;;;;;6.43;2.30;;;15.40;1.00;;;;;;5131448;28;20478;-73
2022/07/05 03:19:06;;;;;;;6.37;1.67;;;15.30;1.00;;;;;;5130889;28;20526;-73
2022/07/05 03:21:34;;;;;;;6.40;1.70;;;15.30;1.00;;;;;;5131584;28;20435;-73
2022/07/05 03:24:01;;;;;;;5.73;1.77;;;15.20;1.00;;;;;;5130456;28;20990;-72
2022/07/05 03:26:28;;;;;;;5.47;1.67;;;15.20;1.00;;;;;;5131519;28;20452;-72
2022/07/05 03:28:56;;;;;;;5.37;1.50;;;15.20;1.00;;;;;;5130339;28;20447;-72
2022/07/05 03:31:23;;;;;;;5.40;1.70;;;15.50;1.00;;;;;;5131252;28;20449;-72
2022/07/05 03:33:50;;;;;;;5.87;1.50;;;15.50;99.90;;;;;;5129706;28;20553;-72
2022/07/05 03:36:17;;;;;;;6.20;2.00;;;15.40;1.00;;;;;;5130263;28;20443;-72
2022/07/05 03:38:45;;;;;;;7.50;2.00;;;15.30;1.00;;;;;;5131340;28;20446;-72
2022/07/05 03:41:12;;;;;;;5.70;1.87;;;15.20;1.00;;;;;;5131052;28;20453;-71
2022/07/05 03:43:38;;;;;;;5.10;1.50;;;15.10;1.00;;;;;;5130002;28;20962;-71
2022/07/05 03:46:05;;;;;;;5.43;1.57;;;15.00;1.00;;;;;;5130711;28;20452;-71
2022/07/05 03:48:33;;;;;;;5.20;1.70;;;15.10;1.00;;;;;;5130835;28;20530;-71
2022/07/05 03:51:00;;;;;;;5.50;1.80;;;15.00;1.00;;;;;;5130762;28;20481;-71
2022/07/05 03:53:27;;;;;;;5.00;1.60;;;14.90;1.00;;;;;;5130694;28;20443;-72
2022/07/05 03:55:55;;;;;;;5.13;1.43;;;14.80;74.20;;;;;;5132350;27;20772;-72
2022/07/05 03:58:22;;;;;;;7.00;1.60;;;14.80;68.20;;;;;;5132181;27;20506;-72
2022/07/05 04:00:49;;;;;;;6.43;1.90;;;14.90;11.90;;;;;;5134928;27;20549;-72
2022/07/05 04:03:16;;;;;;;6.13;1.93;;;15.00;1.00;;;;;;5115357;27;20540;-72
2022/07/05 04:05:43;;;;;;;5.90;1.73;;;15.00;1.00;;;;;;5133836;27;20461;-72
2022/07/05 04:08:09;;;;;;;7.20;2.03;;;15.10;1.00;;;;;;5133497;27;20534;-72
2022/07/05 04:10:36;;;;;;;5.60;1.40;;;15.00;1.00;;;;;;5134442;27;20470;-73
2022/07/05 04:13:04;;;;;;;5.60;1.93;;;15.10;1.00;;;;;;5136929;27;20453;-71
2022/07/05 04:15:31;;;;;;;5.50;1.47;;;15.10;1.00;;;;;;5133960;27;20473;-71
2022/07/05 04:17:59;;;;;;;5.47;1.70;;;14.90;1.00;;;;;;5133849;27;20443;-71
2022/07/05 04:20:26;;;;;;;5.83;1.73;;;14.90;1.00;;;;;;5127089;27;20462;-72
2022/07/05 04:22:53;;;;;;;5.73;1.97;;;15.00;1.00;;;;;;5134004;27;20450;-73
2022/07/05 04:25:20;;;;;;;6.70;1.77;;;15.00;1.00;;;;;;5134436;27;20534;-73
2022/07/05 04:27:49;;;;;;;5.53;1.80;;;15.10;1.00;;;;;;5132687;27;20815;-74
2022/07/05 04:30:18;;;;;;;6.37;1.80;;;15.20;1.00;;;;;;5132566;27;20572;-72
2022/07/05 04:32:45;;;;;;;6.23;1.83;;;15.20;1.00;;;;;;5133382;27;20928;-71
2022/07/05 04:35:13;;;;;;;5.20;1.47;;;15.20;1.00;;;;;;5132166;27;20439;-72
2022/07/05 04:37:40;;;;;;;5.90;1.57;;;15.30;1.00;;;;;;5134182;27;20449;-71
2022/07/05 04:40:11;;;;;;;5.77;1.83;;;15.30;1.00;;;;;;5133694;27;20488;-72
2022/07/05 04:42:38;;;;;;;6.60;2.20;;;15.20;1.00;;;;;;5134065;27;20447;-71
2022/07/05 04:45:07;;;;;;;5.60;1.70;;;15.30;99.90;;;;;;5132255;27;20457;-72
2022/07/05 04:47:35;;;;;;;6.37;1.90;;;15.40;99.90;;;;;;5134559;27;20447;-71
2022/07/05 04:50:03;;;;;;;5.50;1.70;;;15.60;1.00;;;;;;5133703;27;20968;-71
2022/07/05 04:52:30;;;;;;;5.90;1.97;;;15.70;99.90;;;;;;5134024;27;20448;-72
2022/07/05 04:54:57;;;;;;;5.83;1.60;;;15.70;1.00;;;;;;5133150;27;20541;-72
2022/07/05 04:57:24;;;;;;;8.93;2.13;;;15.80;99.90;;;;;;5133814;27;20465;-72
2022/07/05 04:59:50;;;;;;;9.90;1.93;;;15.70;1.00;;;;;;5133178;27;20447;-72
2022/07/05 05:02:17;;;;;;;6.60;1.97;;;15.80;1.00;;;;;;5135428;27;20518;-74
2022/07/05 05:04:45;;;;;;;5.40;1.50;;;16.00;1.00;;;;;;5137187;27;20771;-73
2022/07/05 05:07:12;;;;;;;5.37;1.60;;;16.10;99.90;;;;;;5134209;27;20445;-71
2022/07/05 05:09:39;;;;;;;5.80;2.10;;;16.20;1.00;;;;;;5134871;27;20477;-73
2022/07/05 05:12:07;;;;;;;5.40;1.63;;;16.20;99.90;;;;;;5143204;27;20548;-74
2022/07/05 05:14:33;;;;;;;6.13;1.53;;;16.30;1.00;;;;;;5135591;27;20940;-75
2022/07/05 05:17:00;;;;;;;6.03;1.80;;;16.40;1.00;;;;;;5133202;27;20452;-72
2022/07/05 05:19:27;;;;;;;5.70;1.70;;;16.40;1.00;;;;;;5132365;27;20453;-70
2022/07/05 05:21:55;;;;;;;6.47;1.43;;;16.50;1.00;;;;;;5132216;27;20659;-72
2022/07/05 05:24:22;;;;;;;6.13;1.73;;;16.60;99.90;;;;;;5132040;27;20455;-72
2022/07/05 05:26:50;;;;;;;6.00;1.57;;;16.80;99.90;;;;;;5130419;27;20446;-72
2022/07/05 05:29:17;;;;;;;6.00;1.73;;;;;;;;;;5129481;27;20455;-71
2022/07/05 05:31:45;;;;;;;8.33;1.80;;;;;;;;;;5130288;27;20605;-71
2022/07/05 05:34:12;;;;;;;5.50;1.40;;;;;;;;;;5128437;27;20478;-72
2022/07/05 05:36:39;;;;;;;6.50;1.70;;;;;;;;;;5123973;27;20450;-70
2022/07/05 05:39:08;;;;;;;6.67;1.67;;;;;;;;;;5129820;27;20439;-74
2022/07/05 05:41:35;;;;;;;7.23;1.93;;;;;;;;;;5124329;27;20455;-75
2022/07/05 05:44:02;;;;;;;6.50;1.50;;;;;;;;;;5121939;27;20545;-73
2022/07/05 05:46:29;;;;;;;7.20;1.80;;;;;;;;;;5108107;27;20500;-74
2022/07/05 05:48:58;;;;;;;8.07;1.60;;;;;;;;;;5123781;27;20447;-72
2022/07/05 05:51:25;;;;;;;7.07;1.40;;;;;;;;;;5127992;27;20475;-73
2022/07/05 05:53:52;;;;;;;7.83;1.30;;;;;;;;;;5125798;27;20463;-72
2022/07/05 05:56:21;;;;;;;7.27;1.50;;;;;;;;;;5125964;27;20480;-72
2022/07/05 05:58:48;;;;;;;7.87;1.50;;;;;;;;;;5131573;27;20539;-72
2022/07/05 06:01:15;;;;;;;8.57;1.70;;;;;;;;;;5130878;27;20450;-73
2022/07/05 06:03:42;;;;;;;8.10;1.53;;;;;;;;;;5130319;27;20481;-72
2022/07/05 06:06:10;;;;;;;9.50;1.80;;;;;;;;;;5130859;27;20447;-71
2022/07/05 06:08:37;;;;;;;7.80;1.53;;;;;;;;;;5127015;27;20880;-72
2022/07/05 06:11:04;;;;;;;7.23;1.30;;;;;;;;;;5131688;27;20478;-71
2022/07/05 06:13:33;;;;;;;7.63;1.10;;;;;;;;;;5127553;27;20953;-72
2022/07/05 06:16:00;;;;;;;7.47;1.13;;;;;;;;;;5130171;27;20463;-72
2022/07/05 06:18:27;;;;;;;7.60;1.07;;;;;;;;;;5130741;27;20439;-72
2022/07/05 06:20:55;;;;;;;8.47;1.50;;;;;;;;;;5131242;27;20439;-72
2022/07/05 06:23:22;;;;;;;8.50;1.17;;;;;;;;;;5130796;27;20566;-72
2022/07/05 06:25:49;;;;;;;7.90;1.43;;;;;;;;;;5131754;27;20443;-72
2022/07/05 06:28:16;;;;;;;7.40;1.00;;;;;;;;;;5130887;27;20435;-72
2022/07/05 06:30:45;;;;;;;7.50;1.40;;;;;;;;;;5129910;27;20548;-72
2022/07/05 06:33:12;;;;;;;8.97;1.60;;;;;;;;;;5125485;27;20475;-72
2022/07/05 06:35:39;;;;;;;7.37;1.47;;;;;;;;;;5126293;27;20455;-72
2022/07/05 06:38:08;;;;;;;7.13;1.10;;;;;;;;;;5125925;27;20443;-72
2022/07/05 06:40:36;;;;;;;7.50;1.00;;;;;;;;;;5129530;27;20455;-72
2022/07/05 06:43:04;;;;;;;8.27;0.93;;;;;;;;;;5130143;27;20959;-72
2022/07/05 06:45:31;;;;;;;8.30;1.00;;;;;;;;;;5130337;27;20454;-72
2022/07/05 06:48:00;;;;;;;8.20;0.90;;;;;;;;;;5131185;27;20439;-72
2022/07/05 06:50:28;;;;;;;8.77;1.33;;;;;;;;;;5129194;27;20475;-72
2022/07/05 06:52:55;;;;;;;8.50;1.20;;;;;;;;;;5130432;28;20542;-73
2022/07/05 06:55:23;;;;;;;9.20;1.80;;;;;;;;;;5130163;28;21014;-72
2022/07/05 06:57:50;;;;;;;7.63;0.87;;;;;;;;;;5131248;28;20469;-72
2022/07/05 07:00:17;;;;;;;8.10;1.10;;;;;;;;;;5130294;28;20451;-72
2022/07/05 07:02:44;;;;;;;8.30;1.27;;;;;;;;;;5130543;28;20486;-72
2022/07/05 07:05:13;;;;;;;8.13;1.07;;;;;;;;;;5127317;28;20438;-72
2022/07/05 07:10:25;;;;;;;8.57;1.10;;;;;;;;;;5130082;28;20486;-71
2022/07/05 07:12:52;;;;;;;9.40;1.40;;;;;;;;;;5130483;28;20447;-72
2022/07/05 07:15:21;;;;;;;8.40;1.07;;;;;;;;;;5129772;28;20462;-72
2022/07/05 07:17:48;;;;;;;8.00;1.17;;;;;;;;;;5129880;28;20486;-72
2022/07/05 07:20:17;;;;;;;7.90;0.90;;;;;;;;;;5129908;28;20455;-72
2022/07/05 07:22:44;;;;;;;7.77;0.87;;;;;;;;;;5131184;28;20819;-72
2022/07/05 07:25:11;;;;;;;8.00;1.00;;;;;;;;;;5128560;28;20530;-72
2022/07/05 07:27:43;;;;;;;7.87;0.83;;;;;;;;;;5129938;28;21063;-70
2022/07/05 07:30:11;;;;;;;8.20;1.13;;;;;;;;;;5131195;27;20446;-72
2022/07/05 07:32:38;;;;;;;7.90;1.20;;;;;;;;;;5131607;27;20486;-71
2022/07/05 07:35:05;;;;;;;7.90;1.30;;;;;;;;;;5128331;27;20475;-72
2022/07/05 07:37:34;;;;;;;7.40;0.93;;;;;;;;;;5126953;27;21172;-74
2022/07/05 07:40:02;;;;;;;7.60;1.00;;;;;;;;;;5128322;27;20796;-73
2022/07/05 07:42:29;;;;;;;7.20;1.20;;;;;;;;;;5130437;27;20471;-71
2022/07/05 07:44:57;;;;;;;7.30;1.10;;;;;;;;;;5128824;27;20450;-76
2022/07/05 07:47:24;;;;;;;7.30;1.03;;;;;;;;;;5127799;27;20459;-72
2022/07/05 07:49:51;;;;;;;7.40;1.37;;;;;;;;;;5123377;27;20447;-71
2022/07/05 07:52:18;;;;;;;7.57;1.47;;;;;;;;;;5123192;27;20478;-72
2022/07/05 07:54:47;;;;;;;6.80;1.17;;;;;;;;;;5129378;27;20469;-72
2022/07/05 07:57:14;;;;;;;7.30;1.30;;;;;;;;;;5131552;27;20446;-72
2022/07/05 07:59:41;;;;;;;7.07;1.07;;;;;;;;;;5130950;27;20850;-72
2022/07/05 08:02:08;;;;;;;6.90;1.10;;;;;;;;;;5131058;27;20818;-73
2022/07/05 08:04:36;;;;;;;7.20;1.50;;;;;;;;;;5131925;27;20547;-72
2022/07/05 08:07:03;;;;;;;7.40;1.50;;;;;;;;;;5128255;27;20955;-72
2022/07/05 08:09:31;;;;;;;7.50;1.50;;;;;;;;;;5131947;27;20447;-72
2022/07/05 08:11:59;;;;;;;7.83;1.10;;;;;;;;;;5130107;27;20474;-72
2022/07/05 08:14:26;;;;;;;7.53;1.30;;;;;;;;;;5131465;27;20796;-73
2022/07/05 08:16:54;;;;;;;6.90;0.80;;;;;;;;;;5131976;27;20938;-71
2022/07/05 08:22:08;;;;;;;6.80;1.10;;;;;;;;;;5125479;27;20507;-73
2022/07/05 08:24:35;;;;;;;6.70;1.13;;;;;;;;;;5129262;27;20969;-71
2022/07/05 08:27:04;;;;;;;6.77;1.10;;;;;;;;;;5130903;27;20546;-72
2022/07/05 08:29:32;;;;;;;6.83;0.93;;;;;;;;;;5126624;27;20926;-72
2022/07/05 08:31:59;;;;;;;10.00;1.53;;;;;;;;;;5129136;27;20965;-72
2022/07/05 08:34:26;;;;;;;6.60;0.87;;;;;;;;;;5123659;27;20474;-72
2022/07/05 08:36:53;;;;;;;6.90;1.40;;;;;;;;;;5120644;27;20447;-72
2022/07/05 08:39:20;;;;;;;6.70;0.97;;;;;;;;;;5124441;27;20847;-72
2022/07/05 08:41:49;;;;;;;6.80;1.13;;;;;;;;;;5126745;27;20941;-72
2022/07/05 08:44:19;;;;;;;6.80;1.20;;;;;;;;;;5133097;27;20447;-72
2022/07/05 08:46:46;;;;;;;6.70;1.00;;;;;;;;;;5132890;27;20940;-72
2022/07/05 08:49:14;;;;;;;6.67;1.00;;;;;;;;;;5133220;27;20848;-71
2022/07/05 08:51:42;;;;;;;6.70;1.20;;;;;;;;;;5133563;27;20497;-72
2022/07/05 08:54:11;;;;;;;6.33;1.10;;;;;;;;;;5132536;27;20447;-71
2022/07/05 08:56:39;;;;;;;6.23;1.20;;;;;;;;;;5133320;27;20462;-72
2022/07/05 08:59:06;;;;;;;7.00;1.23;;;;;;;;;;5133302;27;20456;-72
2022/07/05 09:01:35;;;;;;;5.93;1.00;;;;;;;;;;5132915;27;20901;-72
2022/07/05 09:04:02;;;;;;;6.60;1.10;;;;;;;;;;5132286;27;20457;-72
2022/07/05 09:06:30;;;;;;;6.00;1.00;;;;;;;;;;5133137;27;20577;-71
2022/07/05 09:08:57;;;;;;;6.00;1.10;;;;;;;;;;5132141;27;20457;-72
2022/07/05 09:11:26;;;;;;;6.03;1.13;;;;;;;;;;5132741;27;20475;-72
2022/07/05 09:13:53;;;;;;;5.97;0.90;;;;;;;;;;5132502;27;20542;-72
2022/07/05 09:16:20;;;;;;;6.67;1.03;;;;;;;;;;5131730;27;20949;-72
2022/07/05 09:18:50;;;;;;;5.70;1.00;;;;;;;;;;5131521;27;21015;-74
2022/07/05 09:21:18;;;;;;;5.60;1.10;;;;;;;;;;5131297;27;20443;-72
2022/07/05 09:23:46;;;;;;;5.47;1.00;;;;;;;;;;5131544;27;20455;-72
2022/07/05 09:26:13;;;;;;;6.40;1.53;;;;;;;;;;5131820;27;20435;-72
2022/07/05 09:28:55;;;;;;;5.50;1.00;;;;;;;;;;5132646;27;20883;-72
2022/07/05 09:31:27;;;;;;;6.50;1.10;;;;;;;;;;5131533;27;20474;-73
2022/07/05 09:33:58;;;;;;;6.73;1.17;;;;;;;;;;5121543;27;20524;-72
2022/07/05 09:36:25;;;;;;;6.00;1.30;;;;;;;;;;5121471;27;20935;-72
2022/07/05 09:38:52;;;;;;;6.10;0.93;;;;;;;;;;5126500;27;20443;-73
2022/07/05 09:41:20;;;;;;;6.60;1.33;;;;;;;;;;5126259;27;20447;-73
2022/07/05 09:43:47;;;;;;;5.50;0.87;;;;;;;;;;5124141;27;20461;-72
2022/07/05 09:46:14;;;;;;;6.10;1.10;;;;;;;;;;5128210;27;20447;-73
2022/07/05 09:48:52;;;;;;;6.13;1.20;;;;;;;;;;5123000;27;20802;-73
2022/07/05 09:51:21;;;;;;;5.60;0.90;;;;;;;;;;5124903;27;20968;-74
2022/07/05 09:53:49;;;;;;;6.90;1.30;;;;;;;;;;5129322;27;20526;-74
2022/07/05 09:56:17;;;;;;;5.37;1.20;;;;;;;;;;5130909;27;20461;-74
2022/07/05 09:58:44;;;;;;;5.23;0.90;;;;;;;;;;5131490;27;20447;-74
2022/07/05 10:01:29;;;;;;;5.30;1.00;;;;;;;;;;5131393;27;20464;-73
2022/07/05 10:03:57;;;;;;;5.77;1.10;;;;;;;;;;5130572;27;20463;-70
2022/07/05 10:06:27;;;;;;;5.80;1.20;;;;;;;;;;5131283;27;20542;-73
2022/07/05 10:08:54;;;;;;;4.80;0.80;;;;;;;;;;5129309;27;20530;-73
2022/07/05 10:11:22;;;;;;;4.90;1.07;;;;;;;;;;5129000;27;20579;-74
2022/07/05 10:13:50;;;;;;;4.73;0.90;;;;;;;;;;5127469;27;20458;-73
2022/07/05 10:16:17;;;;;;;5.50;0.80;;;;;;;;;;5130036;27;20469;-73
2022/07/05 10:18:46;;;;;;;4.60;0.80;;;;;;;;;;5130532;27;20476;-73
2022/07/05 10:21:14;;;;;;;5.03;1.00;;;;;;;;;;5131082;27;20455;-73
2022/07/05 10:23:44;;;;;;;5.10;1.10;;;;;;;;;;5131515;27;20458;-74
2022/07/05 10:26:11;;;;;;;4.70;1.10;;;;;;;;;;5130479;27;20801;-74
2022/07/05 10:28:39;;;;;;;4.47;0.90;;;;;;;;;;5131824;27;20447;-74
2022/07/05 10:31:08;;;;;;;5.00;1.10;;;;;;;;;;5130580;27;20807;-75
2022/07/05 10:33:36;;;;;;;4.60;1.00;;;;;;;;;;5121693;27;20511;-73
2022/07/05 10:36:03;;;;;;;5.70;1.20;;;;;;;;;;5123637;27;20454;-73
2022/07/05 10:38:31;;;;;;;4.47;0.97;;;;;;;;;;5129636;27;20446;-73
2022/07/05 10:41:03;;;;;;;4.80;1.00;;;;;;;;;;5127675;27;21123;-73
2022/07/05 10:43:30;;;;;;;4.90;1.47;;;17.00;71.30;;;;;;5125736;27;20515;-74
2022/07/05 10:45:56;;;;;;;5.30;1.13;;;26.30;1.00;;;;;;5130822;27;20443;-74
2022/07/05 10:48:24;;;;;;;4.87;1.10;;;26.10;1.00;;;;;;5130238;27;20447;-74
2022/07/05 10:50:53;;;;;;;4.80;1.00;;;26.20;1.00;;;;;;5130839;27;20442;-73
2022/07/05 10:53:21;;;;;;;4.87;1.00;;;26.00;1.00;;;;;;5124698;28;20474;-74
2022/07/05 10:55:51;;;;;;;4.60;1.07;;;26.30;1.00;;;;;;5129525;28;20446;-75
2022/07/05 10:58:32;;;;;;;4.43;0.87;;;26.60;1.00;;;;;;5132573;27;20443;-74
2022/07/05 11:01:45;;;;;;;5.80;1.03;;;26.60;1.00;;;;;;5128217;28;20460;-74
2022/07/05 11:04:35;;;;;;;4.30;0.90;;;26.20;1.00;;;;;;5124412;27;20443;-74
2022/07/05 11:07:04;;;;;;;4.50;1.10;;;26.50;1.00;;;;;;5132214;27;20621;-75
2022/07/05 11:09:31;;;;;;;3.70;0.80;;;26.70;1.00;;;;;;5139766;27;20442;-73
2022/07/05 11:12:08;;;;;;;3.80;0.87;;;26.40;1.00;;;;;;5141479;27;20478;-73
2022/07/05 11:14:40;;;;;;;3.83;0.90;;;26.30;1.00;;;;;;5139582;27;20474;-76
2022/07/05 11:17:34;;;;;;;4.10;1.10;;;26.40;1.00;;;;;;5132632;27;20457;-75
2022/07/05 11:20:10;;;;;;;4.10;1.00;;;26.30;1.00;;;;;;5130159;27;20451;-74
2022/07/05 11:22:41;;;;;;;4.20;1.13;;;26.90;1.00;;;;;;5130096;27;20933;-75
2022/07/05 11:25:10;;;;;;;4.90;1.10;;;27.00;1.00;;;;;;5131657;27;20442;-75
2022/07/05 11:27:37;;;;;;;4.77;1.30;;;26.60;1.00;;;;;;5125141;27;20529;-75
2022/07/05 11:30:23;;;;;;;4.10;0.80;;;26.30;1.00;;;;;;5123275;27;20450;-74
2022/07/05 11:32:50;;;;;;;4.03;0.90;;;26.00;1.00;;;;;;5126182;27;20548;-74
2022/07/05 11:35:19;;;;;;;4.57;1.00;;;25.90;1.00;;;;;;5127927;27;20448;-75
2022/07/05 11:38:00;;;;;;;4.50;1.40;;;25.80;1.00;;;;;;5127821;27;20451;-75
2022/07/05 11:40:30;;;;;;;4.30;1.00;;;26.20;1.00;;;;;;5122975;27;20542;-73
2022/07/05 11:42:57;;;;;;;4.90;1.10;;;26.30;1.00;;;;;;5127599;27;21011;-73
2022/07/05 11:45:26;;;;;;;4.47;0.83;;;26.50;1.00;;;;;;5123638;27;20857;-72
2022/07/05 11:47:56;;;;;;;4.23;1.23;;;26.50;1.00;;;;;;5125313;27;20451;-72
2022/07/05 11:50:27;;;;;;;4.70;1.20;;;26.40;1.00;;;;;;5125260;27;20810;-73
2022/07/05 11:52:54;;;;;;;4.03;0.97;;;26.70;1.00;;;;;;5129960;27;20467;-72
2022/07/05 11:55:21;;;;;;;5.20;1.03;;;26.50;1.00;;;;;;5129958;27;20530;-72
2022/07/05 11:57:53;;;;;;;4.83;1.20;;;26.70;1.00;;;;;;5130718;27;20478;-72
2022/07/05 12:00:37;;;;;;;4.00;0.90;;;27.00;1.00;;;;;;5128416;27;20447;-73
2022/07/05 12:03:12;;;;;;;5.60;1.13;;;27.00;1.00;;;;;;5129272;27;20470;-74
2022/07/05 12:05:40;;;;;;;4.97;1.10;;;26.70;1.00;;;;;;5129889;27;20527;-73
2022/07/05 12:08:07;;;;;;;4.37;1.20;;;26.90;1.00;;;;;;5131419;27;20447;-73
2022/07/05 12:13:18;;;;;;;4.30;1.07;;;27.20;1.00;;;;;;5133105;27;20678;-73
2022/07/05 12:15:47;;;;;;;4.67;1.00;;;27.20;1.00;;;;;;5131678;27;20454;-73
2022/07/05 12:18:15;;;;;;;3.60;0.93;;;27.40;1.00;;;;;;5130259;27;20445;-73
2022/07/05 12:20:42;;;;;;;5.23;1.30;;;26.90;1.00;;;;;;5128365;27;21732;-73
2022/07/05 12:23:09;;;;;;;4.53;1.17;;;;;;;;;;5132852;27;20445;-73
2022/07/05 12:25:37;;;;;;;4.00;1.10;;;;;;;;;;5132469;27;20478;-74
2022/07/05 12:28:06;;;;;;;4.50;1.10;;;;;;;;;;5131965;27;20439;-79
2022/07/05 12:30:34;;;;;;;4.10;1.37;;;;;;;;;;5129705;27;20462;-77
2022/07/05 12:33:04;;;;;;;4.13;1.10;;;;;;;;;;5125713;27;20478;-77
2022/07/05 12:35:32;;;;;;;3.80;1.03;;;;;;;;;;5127025;27;20423;-75
2022/07/05 12:38:03;;;;;;;4.73;1.17;;;;;;;;;;5126633;27;20482;-72
2022/07/05 12:40:30;;;;;;;4.33;1.20;;;;;;;;;;5132220;27;20948;-69
2022/07/05 12:43:08;;;;;;;4.43;1.10;;;;;;;;;;5132191;27;20442;-74
2022/07/05 12:45:35;;;;;;;3.80;1.13;;;;;;;;;;5132756;27;20438;-74
2022/07/05 12:48:05;;;;;;;3.90;1.00;;;;;;;;;;5133211;27;20558;-74
2022/07/05 12:50:47;;;;;;;3.90;1.10;;;;;;;;;;5133554;27;20448;-72
2022/07/05 12:58:46;;;;;;;4.93;1.33;;;;;;;;;;5120658;27;20465;-71
2022/07/05 13:01:23;;;;;;;3.73;1.20;;;;;;;;;;5131940;27;20834;-71
2022/07/05 13:03:59;;;;;;;3.77;1.20;;;;;;;;;;5133408;27;20446;-71
2022/07/05 13:06:40;;;;;;;3.77;1.20;;;;;;;;;;5133060;27;20443;-71
2022/07/05 13:09:07;;;;;;;3.63;1.20;;;;;;;;;;5133303;27;20443;-71
2022/07/05 13:11:34;;;;;;;4.47;1.37;;;;;;;;;;5137596;27;20446;-71
2022/07/05 13:14:01;;;;;;;5.57;1.80;;;;;;;;;;5138575;27;20484;-72
2022/07/05 13:16:29;;;;;;;3.30;1.00;;;;;;;;;;5132964;27;20442;-71
2022/07/05 13:18:56;;;;;;;3.70;0.87;;;;;;;;;;5127919;27;20465;-71
2022/07/05 13:21:24;;;;;;;3.60;1.00;;;;;;;;;;5132784;27;20522;-71
2022/07/05 13:23:51;;;;;;;6.03;1.00;;;;;;;;;;5126659;27;20804;-71
2022/07/05 13:26:18;;;;;;;3.47;1.07;;;;;;;;;;5131390;27;20541;-71
2022/07/05 13:28:46;;;;;;;3.43;1.00;;;;;;;;;;5131807;27;20583;-71
2022/07/05 13:31:14;;;;;;;3.80;1.17;;;;;;;;;;5131795;27;20461;-71
2022/07/05 13:33:41;;;;;;;3.63;1.20;;;;;;;;;;5123489;27;20515;-71
2022/07/05 13:36:08;;;;;;;4.70;1.43;;;27.20;1.00;;;;;;5120020;27;20937;-71
2022/07/05 13:38:36;;;;;;;3.60;1.20;;;28.60;1.00;;;;;;5124202;27;20801;-71
2022/07/05 13:41:03;;;;;;;4.23;1.23;;;28.30;1.00;;;;;;5121288;27;20538;-71
2022/07/05 13:43:29;;;;;;;3.37;1.10;;;27.90;1.00;;;;;;5120177;27;20457;-72
2022/07/05 13:45:56;;;;;;;3.60;1.20;;;28.20;1.00;;;;;;5125534;27;20493;-71
2022/07/05 13:48:23;;;;;;;3.40;1.10;;;28.20;1.00;;;;;;5121526;27;20515;-71
2022/07/05 13:50:50;;;;;;;4.70;1.40;;;28.20;1.00;;;;;;5117884;27;20444;-71
2022/07/05 13:53:17;;;;;;;3.87;1.20;;;28.80;1.00;;;;;;5126996;27;20477;-71
2022/07/05 13:55:46;;;;;;;3.30;0.97;;;;;;;;;;5132682;27;20450;-71
2022/07/05 13:58:13;;;;;;;3.30;1.10;;;;;;;;;;5131902;27;20446;-72
2022/07/05 14:00:40;;;;;;;3.33;1.03;;;;;;;;;;5132702;27;20454;-71
2022/07/05 14:03:07;;;;;;;4.03;1.30;;;;;;;;;;5131911;27;20462;-72
2022/07/05 14:05:34;;;;;;;3.03;1.10;;;;;;;;;;5132511;27;20447;-70
2022/07/05 14:08:01;;;;;;;3.10;1.10;;;29.00;1.00;;;;;;5131851;27;20439;-71
2022/07/05 14:10:28;;;;;;;3.17;1.03;;;29.50;1.00;;;;;;5132690;27;20462;-71
2022/07/05 14:12:56;;;;;;;3.27;1.20;;;28.70;1.00;;;;;;5143453;27;20605;-70
2022/07/05 14:15:23;;;;;;;3.60;1.13;;;28.40;1.00;;;;;;5132717;27;20438;-71
2022/07/05 14:17:50;;;;;;;3.90;1.27;;;28.80;1.00;;;;;;5132554;27;20447;-71
2022/07/05 14:20:17;;;;;;;3.43;1.20;;;;;;;;;;5131995;27;20443;-71
2022/07/05 14:22:44;;;;;;;3.20;1.10;;;;;;;;;;5132102;27;20203;-71
2022/07/05 14:25:11;;;;;;;3.92;1.38;;;;;;;;;;5131541;27;20207;-71